createdAt,value
2019-05-22T00:01:07.764Z,6.22
2019-05-22T00:03:38.620Z,4.80
2019-05-22T00:06:09.405Z,5.87
2019-05-22T00:08:40.225Z,4.53
2019-05-22T00:11:11.011Z,5.75
2019-05-22T00:13:40.158Z,5.80
2019-05-22T00:16:09.387Z,5.55
2019-05-22T00:18:39.900Z,4.95
2019-05-22T00:21:10.078Z,5.78
2019-05-22T00:23:40.591Z,7.00
2019-05-22T00:26:11.107Z,6.95
2019-05-22T00:28:40.579Z,5.60
2019-05-22T00:31:11.123Z,5.83
2019-05-22T00:33:41.324Z,4.95
2019-05-22T00:36:11.194Z,6.08
2019-05-22T00:38:41.867Z,4.37
2019-05-22T00:41:11.906Z,4.30
2019-05-22T00:43:44.632Z,4.00
2019-05-22T00:46:15.481Z,5.05
2019-05-22T00:48:46.185Z,5.92
2019-05-22T00:51:29.138Z,4.60
2019-05-22T00:54:00.011Z,4.55
2019-05-22T00:56:37.161Z,4.12
2019-05-22T00:59:21.645Z,5.70
2019-05-22T01:02:09.667Z,5.90
2019-05-22T01:04:42.222Z,4.75
2019-05-22T01:07:17.139Z,4.40
2019-05-22T01:09:48.437Z,4.72
2019-05-22T01:12:32.914Z,6.42
2019-05-22T01:15:04.938Z,5.60
2019-05-22T01:17:36.041Z,6.17
2019-05-22T01:20:06.983Z,5.50
2019-05-22T01:22:37.092Z,6.20
2019-05-22T01:25:06.841Z,5.80
2019-05-22T01:27:36.671Z,4.55
2019-05-22T01:30:08.357Z,4.55
2019-05-22T01:32:44.912Z,6.75
2019-05-22T01:35:14.190Z,6.83
2019-05-22T01:37:44.468Z,9.25
2019-05-22T01:40:36.771Z,6.28
2019-05-22T01:43:08.763Z,6.37
2019-05-22T01:45:40.005Z,8.68
2019-05-22T01:48:12.587Z,8.88
2019-05-22T01:50:48.612Z,10.95
2019-05-22T01:53:22.205Z,8.05
2019-05-22T01:55:53.018Z,11.05
2019-05-22T01:58:23.971Z,9.08
2019-05-22T02:00:55.577Z,11.43
2019-05-22T02:03:25.220Z,9.85
2019-05-22T02:05:55.105Z,12.85
2019-05-22T02:08:26.110Z,10.80
2019-05-22T02:10:58.084Z,12.03
2019-05-22T02:13:33.354Z,14.35
2019-05-22T02:16:02.617Z,14.73
2019-05-22T02:18:33.550Z,18.27
2019-05-22T02:21:04.004Z,16.12
2019-05-22T02:23:33.886Z,15.23
2019-05-22T02:26:04.894Z,15.70
2019-05-22T02:28:36.148Z,16.45
2019-05-22T02:31:07.106Z,15.10
2019-05-22T02:33:38.256Z,16.12
2019-05-22T02:36:07.702Z,15.68
2019-05-22T02:38:37.357Z,16.25
2019-05-22T02:41:08.249Z,16.40
2019-05-22T02:43:37.497Z,15.60
2019-05-22T02:46:08.217Z,20.02
2019-05-22T02:48:37.358Z,18.75
2019-05-22T02:51:07.172Z,21.48
2019-05-22T02:53:36.359Z,22.22
2019-05-22T02:56:07.231Z,24.40
2019-05-22T02:58:37.383Z,20.90
2019-05-22T03:01:07.682Z,27.48
2019-05-22T03:03:37.539Z,29.67
2019-05-22T03:06:12.290Z,28.52
2019-05-22T03:09:00.962Z,28.25
2019-05-22T03:11:35.312Z,33.40
2019-05-22T03:14:07.602Z,33.73
2019-05-22T03:16:48.208Z,39.27
2019-05-22T03:19:28.372Z,36.17
2019-05-22T03:21:57.621Z,38.33
2019-05-22T03:24:26.804Z,37.65
2019-05-22T03:26:57.007Z,39.33
2019-05-22T03:29:30.320Z,38.50
2019-05-22T03:31:59.840Z,39.00
2019-05-22T03:34:29.028Z,39.78
2019-05-22T03:36:58.186Z,39.60
2019-05-22T03:39:27.746Z,42.33
2019-05-22T03:41:57.334Z,42.33
2019-05-22T03:44:28.374Z,40.55
2019-05-22T03:46:59.598Z,40.30
2019-05-22T03:49:31.041Z,33.33
2019-05-22T03:52:01.306Z,35.78
2019-05-22T03:54:30.699Z,35.52
2019-05-22T03:56:59.894Z,35.48
2019-05-22T03:59:29.093Z,38.13
2019-05-22T04:01:58.267Z,41.33
2019-05-22T04:04:35.652Z,34.60
2019-05-22T04:07:06.739Z,33.05
2019-05-22T04:09:36.955Z,33.58
2019-05-22T04:12:06.518Z,34.85
2019-05-22T04:14:37.437Z,34.78
2019-05-22T04:17:07.982Z,36.98
2019-05-22T04:19:49.288Z,36.17
2019-05-22T04:22:10.002Z,36.87
2019-05-22T04:24:42.428Z,39.55
2019-05-22T04:27:12.770Z,38.73
2019-05-22T04:29:42.220Z,37.83
2019-05-22T04:32:29.013Z,42.62
2019-05-22T04:34:58.832Z,38.05
2019-05-22T04:37:29.469Z,34.27
2019-05-22T04:40:25.545Z,42.60
2019-05-22T04:42:56.123Z,42.88
2019-05-22T04:45:26.776Z,48.58
2019-05-22T04:47:58.599Z,42.62
2019-05-22T04:50:29.093Z,44.90
2019-05-22T04:52:59.862Z,46.20
2019-05-22T04:55:30.210Z,48.70
2019-05-22T04:58:11.211Z,49.30
2019-05-22T05:00:40.957Z,48.48
2019-05-22T05:03:10.852Z,46.83
2019-05-22T05:05:41.698Z,49.88
2019-05-22T05:08:14.303Z,52.78
2019-05-22T05:10:47.896Z,47.13
2019-05-22T05:13:17.550Z,42.62
2019-05-22T05:15:46.784Z,40.83
2019-05-22T05:18:16.133Z,41.60
2019-05-22T05:20:45.283Z,36.48
2019-05-22T05:23:14.467Z,36.30
2019-05-22T05:25:47.887Z,34.58
2019-05-22T05:28:17.134Z,35.90
2019-05-22T05:30:46.294Z,35.00
2019-05-22T05:33:15.462Z,33.67
2019-05-22T05:35:44.626Z,35.52
2019-05-22T05:38:13.997Z,30.82
2019-05-22T05:40:43.181Z,30.88
2019-05-22T05:43:13.220Z,31.77
2019-05-22T05:45:43.396Z,33.75
2019-05-22T05:48:15.582Z,32.23
2019-05-22T05:51:07.278Z,33.67
2019-05-22T05:54:06.962Z,36.13
2019-05-22T05:56:37.462Z,41.05
2019-05-22T05:59:08.511Z,39.10
2019-05-22T06:01:39.732Z,40.23
2019-05-22T06:04:09.088Z,42.85
2019-05-22T06:06:44.465Z,44.70
2019-05-22T06:09:18.072Z,43.23
2019-05-22T06:11:48.987Z,46.88
2019-05-22T06:14:25.326Z,49.33
2019-05-22T06:17:38.734Z,52.43
2019-05-22T06:20:12.716Z,53.08
2019-05-22T06:22:42.710Z,53.40
2019-05-22T06:25:12.532Z,54.38
2019-05-22T06:27:43.538Z,54.38
2019-05-22T06:30:16.418Z,55.12
2019-05-22T06:32:57.984Z,54.10
2019-05-22T06:35:31.921Z,51.58
2019-05-22T06:38:19.723Z,53.15
2019-05-22T06:40:48.926Z,48.68
2019-05-22T06:43:28.876Z,55.40
2019-05-22T06:45:58.088Z,51.58
2019-05-22T06:48:27.327Z,49.25
2019-05-22T06:50:56.775Z,44.30
2019-05-22T06:53:26.321Z,49.90
2019-05-22T06:55:59.224Z,47.00
2019-05-22T06:58:28.643Z,47.00
2019-05-22T07:00:58.125Z,47.75
2019-05-22T07:03:27.952Z,43.50
2019-05-22T07:05:57.794Z,44.73
2019-05-22T07:08:27.318Z,41.65
2019-05-22T07:10:56.585Z,41.95
2019-05-22T07:13:25.793Z,41.37
2019-05-22T07:15:56.069Z,38.73
2019-05-22T07:18:26.897Z,41.68
2019-05-22T07:20:56.764Z,39.67
2019-05-22T07:23:27.769Z,41.35
2019-05-22T07:25:57.548Z,38.48
2019-05-22T07:28:27.853Z,38.78
2019-05-22T07:30:57.021Z,37.00
2019-05-22T07:33:26.261Z,41.80
2019-05-22T07:36:15.845Z,39.30
2019-05-22T07:38:26.947Z,41.63
2019-05-22T07:40:56.149Z,42.10
2019-05-22T07:43:25.636Z,38.25
2019-05-22T07:45:55.443Z,36.13
2019-05-22T07:48:26.570Z,37.10
2019-05-22T07:50:56.906Z,35.78
2019-05-22T07:53:26.813Z,36.65
2019-05-22T07:55:57.708Z,38.40
2019-05-22T07:58:28.389Z,33.23
2019-05-22T08:00:59.320Z,34.20
2019-05-22T08:03:31.670Z,31.57
2019-05-22T08:06:01.352Z,35.50
2019-05-22T08:08:32.736Z,30.85
2019-05-22T08:11:01.964Z,33.08
2019-05-22T08:13:32.203Z,32.80
2019-05-22T08:16:01.733Z,31.00
2019-05-22T08:18:32.863Z,31.25
2019-05-22T08:21:02.243Z,28.47
2019-05-22T08:23:31.473Z,29.00
2019-05-22T08:26:00.651Z,28.20
2019-05-22T08:28:31.816Z,29.32
2019-05-22T08:31:01.611Z,30.70
2019-05-22T08:33:32.383Z,32.90
2019-05-22T08:36:05.675Z,33.23
2019-05-22T08:38:35.234Z,32.35
2019-05-22T08:41:06.975Z,33.38
2019-05-22T08:43:56.054Z,31.68
2019-05-22T08:46:07.360Z,30.02
2019-05-22T08:48:39.008Z,28.27
2019-05-22T08:51:08.796Z,29.80
2019-05-22T08:53:47.356Z,28.75
2019-05-22T08:56:10.392Z,34.05
2019-05-22T08:58:39.703Z,32.05
2019-05-22T09:01:10.458Z,29.63
2019-05-22T09:03:40.317Z,28.02
2019-05-22T09:06:09.641Z,38.50
2019-05-22T09:08:39.044Z,28.73
2019-05-22T09:11:08.482Z,29.87
2019-05-22T09:13:38.049Z,28.50
2019-05-22T09:16:08.977Z,32.48
2019-05-22T09:18:38.330Z,30.35
2019-05-22T09:21:07.762Z,29.75
2019-05-22T09:23:36.942Z,30.70
2019-05-22T09:26:06.366Z,25.52
2019-05-22T09:28:35.535Z,29.50
2019-05-22T09:31:05.718Z,25.15
2019-05-22T09:33:36.238Z,22.27
2019-05-22T09:36:06.907Z,25.88
2019-05-22T09:38:36.139Z,27.35
2019-05-22T09:41:05.426Z,25.85
2019-05-22T09:43:34.765Z,25.72
2019-05-22T09:46:04.742Z,23.67
2019-05-22T09:48:34.499Z,26.50
2019-05-22T09:51:03.845Z,26.85
2019-05-22T09:53:34.956Z,25.62
2019-05-22T09:56:04.694Z,27.58
2019-05-22T09:58:34.163Z,30.90
2019-05-22T10:01:03.398Z,25.97
2019-05-22T10:03:32.968Z,28.92
2019-05-22T10:06:02.600Z,30.37
2019-05-22T10:08:32.005Z,37.53
2019-05-22T10:11:01.460Z,32.10
2019-05-22T10:13:32.208Z,36.70
2019-05-22T10:16:01.586Z,36.40
2019-05-22T10:18:30.927Z,35.28
2019-05-22T10:21:00.233Z,39.15
2019-05-22T10:23:30.540Z,36.30
2019-05-22T10:25:59.757Z,33.15
2019-05-22T10:28:29.083Z,33.18
2019-05-22T10:30:59.118Z,31.57
2019-05-22T10:33:29.077Z,34.05
2019-05-22T10:35:59.549Z,32.33
2019-05-22T10:38:28.957Z,34.30
2019-05-22T10:40:59.536Z,33.88
2019-05-22T10:43:29.409Z,36.03
2019-05-22T10:45:58.704Z,29.60
2019-05-22T10:48:28.028Z,31.45
2019-05-22T10:50:57.250Z,32.13
2019-05-22T10:53:33.642Z,32.05
2019-05-22T10:55:57.358Z,32.05
2019-05-22T10:58:26.531Z,34.27
2019-05-22T11:00:55.773Z,35.20
2019-05-22T11:03:25.037Z,29.30
2019-05-22T11:06:06.409Z,36.48
2019-05-22T11:08:30.402Z,33.95
2019-05-22T11:10:57.303Z,35.48
2019-05-22T11:13:27.240Z,36.45
2019-05-22T11:15:58.345Z,35.80
2019-05-22T11:18:27.715Z,33.30
2019-05-22T11:20:56.962Z,41.40
2019-05-22T11:23:26.882Z,37.28
2019-05-22T11:25:56.164Z,33.23
2019-05-22T11:28:27.915Z,31.35
2019-05-22T11:30:58.116Z,35.08
2019-05-22T11:33:27.298Z,37.55
2019-05-22T11:35:56.538Z,35.75
2019-05-22T11:38:25.758Z,35.55
2019-05-22T11:40:54.912Z,35.20
2019-05-22T11:43:24.145Z,37.93
2019-05-22T11:45:53.599Z,36.38
2019-05-22T11:48:22.849Z,38.98
2019-05-22T11:50:52.925Z,34.10
2019-05-22T11:53:22.126Z,38.02
2019-05-22T11:55:52.185Z,35.50
2019-05-22T11:58:21.850Z,34.05
2019-05-22T12:00:51.118Z,35.73
2019-05-22T12:03:20.768Z,34.20
2019-05-22T12:05:50.556Z,39.63
2019-05-22T12:08:19.845Z,31.48
2019-05-22T12:10:49.313Z,31.12
2019-05-22T12:13:18.719Z,32.17
2019-05-22T12:15:47.917Z,29.48
2019-05-22T12:18:17.605Z,31.07
2019-05-22T12:20:46.781Z,31.00
2019-05-22T12:23:16.083Z,30.00
2019-05-22T12:25:45.337Z,31.17
2019-05-22T12:28:14.772Z,31.50
2019-05-22T12:30:43.923Z,31.27
2019-05-22T12:33:14.320Z,31.30
2019-05-22T12:35:43.933Z,30.68
2019-05-22T12:38:14.552Z,28.42
2019-05-22T12:40:46.554Z,31.30
2019-05-22T12:43:16.071Z,32.78
2019-05-22T12:45:45.298Z,30.35
2019-05-22T12:48:14.645Z,27.50
2019-05-22T12:50:44.886Z,29.42
2019-05-22T12:53:15.327Z,29.65
2019-05-22T12:55:44.478Z,25.45
2019-05-22T12:58:13.720Z,27.73
2019-05-22T13:00:42.916Z,26.93
2019-05-22T13:03:12.707Z,29.10
2019-05-22T13:05:41.914Z,27.60
2019-05-22T13:08:11.420Z,27.00
2019-05-22T13:10:40.615Z,25.15
2019-05-22T13:13:09.785Z,25.80
2019-05-22T13:15:39.318Z,26.33
2019-05-22T13:18:09.943Z,25.65
2019-05-22T13:20:43.217Z,26.05
2019-05-22T13:23:11.642Z,27.20
2019-05-22T13:25:41.070Z,25.00
2019-05-22T13:28:12.368Z,27.27
2019-05-22T13:30:42.818Z,28.67
2019-05-22T13:33:15.933Z,25.17
2019-05-22T13:35:45.569Z,26.02
2019-05-22T13:38:15.429Z,26.33
2019-05-22T13:40:45.300Z,26.37
2019-05-22T13:43:14.477Z,26.37
2019-05-22T13:45:44.075Z,25.75
2019-05-22T13:48:13.327Z,28.52
2019-05-22T13:50:42.767Z,25.35
2019-05-22T13:53:13.027Z,28.45
2019-05-22T13:55:42.519Z,31.37
2019-05-22T13:58:11.762Z,29.05
2019-05-22T14:00:40.969Z,26.48
2019-05-22T14:03:10.240Z,30.62
2019-05-22T14:05:39.895Z,28.70
2019-05-22T14:08:09.394Z,28.45
2019-05-22T14:10:38.917Z,27.55
2019-05-22T14:13:08.769Z,30.72
2019-05-22T14:15:50.359Z,30.17
2019-05-22T14:18:08.866Z,35.68
2019-05-22T14:20:38.138Z,34.85
2019-05-22T14:23:07.402Z,33.63
2019-05-22T14:25:36.823Z,34.80
2019-05-22T14:28:07.162Z,32.78
2019-05-22T14:30:36.809Z,34.05
2019-05-22T14:33:05.967Z,28.80
2019-05-22T14:35:47.590Z,33.67
2019-05-22T14:38:08.138Z,30.80
2019-05-22T14:40:37.889Z,33.18
2019-05-22T14:43:07.489Z,27.90
2019-05-22T14:45:37.743Z,30.77
2019-05-22T14:48:06.891Z,28.12
2019-05-22T14:50:36.070Z,30.40
2019-05-22T14:53:05.263Z,29.72
2019-05-22T14:55:34.760Z,31.20
2019-05-22T14:58:04.894Z,31.50
2019-05-22T15:00:34.400Z,31.00
2019-05-22T15:03:03.709Z,30.72
2019-05-22T15:05:32.986Z,29.23
2019-05-22T15:08:02.157Z,29.10
2019-05-22T15:10:32.091Z,26.57
2019-05-22T15:13:01.399Z,42.43
2019-05-22T15:15:31.681Z,26.27
2019-05-22T15:18:00.963Z,29.05
2019-05-22T15:20:32.659Z,31.30
2019-05-22T15:23:02.071Z,29.92
2019-05-22T15:25:31.938Z,29.87
2019-05-22T15:28:01.339Z,30.92
2019-05-22T15:30:31.033Z,29.90
2019-05-22T15:33:00.194Z,30.30
2019-05-22T15:35:29.445Z,29.82
2019-05-22T15:37:59.143Z,31.00
2019-05-22T15:40:28.306Z,31.37
2019-05-22T15:42:57.667Z,30.10
2019-05-22T15:45:27.476Z,29.35
2019-05-22T15:48:00.878Z,28.73
2019-05-22T15:50:36.013Z,26.87
2019-05-22T15:53:11.908Z,25.27
2019-05-22T15:55:41.390Z,23.62
2019-05-22T15:58:11.991Z,25.75
2019-05-22T16:00:42.900Z,23.80
2019-05-22T16:03:17.811Z,23.22
2019-05-22T16:05:48.147Z,23.90
2019-05-22T16:08:17.646Z,26.37
2019-05-22T16:10:48.453Z,23.83
2019-05-22T16:13:20.239Z,25.08
2019-05-22T16:15:51.857Z,24.12
2019-05-22T16:18:24.325Z,24.70
2019-05-22T16:20:55.027Z,24.25
2019-05-22T16:23:24.576Z,25.17
2019-05-22T16:25:54.073Z,27.67
2019-05-22T16:28:24.880Z,24.67
2019-05-22T16:30:54.907Z,21.35
2019-05-22T16:33:25.013Z,23.60
2019-05-22T16:35:54.591Z,22.35
2019-05-22T16:38:23.908Z,20.05
2019-05-22T16:40:53.387Z,19.40
2019-05-22T16:43:22.703Z,20.23
2019-05-22T16:45:52.007Z,22.40
2019-05-22T16:48:28.933Z,21.07
2019-05-22T16:50:52.660Z,19.80
2019-05-22T16:53:23.080Z,18.90
2019-05-22T16:55:55.014Z,17.75
2019-05-22T16:58:24.531Z,20.55
2019-05-22T17:00:56.656Z,20.32
2019-05-22T17:03:25.971Z,16.10
2019-05-22T17:05:55.182Z,17.27
2019-05-22T17:08:25.728Z,15.60
2019-05-22T17:10:57.299Z,17.92
2019-05-22T17:13:28.034Z,16.65
2019-05-22T17:15:57.759Z,14.35
2019-05-22T17:18:45.537Z,14.85
2019-05-22T17:20:59.708Z,14.07
2019-05-22T17:23:29.067Z,14.23
2019-05-22T17:25:58.741Z,15.68
2019-05-22T17:28:27.994Z,17.27
2019-05-22T17:30:57.179Z,18.40
2019-05-22T17:33:26.982Z,16.27
2019-05-22T17:35:56.750Z,15.55
2019-05-22T17:38:26.324Z,17.60
2019-05-22T17:40:57.107Z,18.73
2019-05-22T17:43:26.520Z,17.62
2019-05-22T17:45:55.758Z,19.15
2019-05-22T17:48:25.792Z,15.63
2019-05-22T17:50:55.173Z,19.77
2019-05-22T17:53:24.551Z,18.62
2019-05-22T17:55:53.725Z,19.77
2019-05-22T17:58:27.160Z,17.15
2019-05-22T18:00:54.394Z,14.70
2019-05-22T18:03:24.544Z,14.50
2019-05-22T18:05:53.836Z,13.32
2019-05-22T18:08:24.010Z,14.80
2019-05-22T18:10:53.454Z,15.25
2019-05-22T18:13:22.954Z,14.70
2019-05-22T18:15:52.258Z,12.10
2019-05-22T18:18:21.650Z,12.30
2019-05-22T18:20:50.954Z,12.13
2019-05-22T18:23:20.499Z,12.85
2019-05-22T18:25:49.824Z,14.55
2019-05-22T18:28:19.133Z,14.15
2019-05-22T18:30:48.550Z,13.70
2019-05-22T18:33:17.813Z,13.08
2019-05-22T18:35:47.403Z,15.53
2019-05-22T18:38:16.573Z,14.53
2019-05-22T18:40:47.765Z,14.45
2019-05-22T18:43:18.949Z,16.80
2019-05-22T18:45:47.855Z,15.70
2019-05-22T18:48:17.191Z,14.45
2019-05-22T18:50:46.532Z,14.80
2019-05-22T18:53:15.949Z,13.62
2019-05-22T18:55:45.288Z,13.75
2019-05-22T18:58:14.713Z,14.45
2019-05-22T19:00:43.967Z,12.40
2019-05-22T19:03:13.913Z,15.35
2019-05-22T19:08:15.159Z,18.07
2019-05-22T19:10:44.387Z,14.30
2019-05-22T19:13:14.621Z,14.73
2019-05-22T19:15:44.341Z,14.85
2019-05-22T19:18:13.760Z,15.40
2019-05-22T19:20:43.815Z,13.90
2019-05-22T19:23:13.077Z,14.75
2019-05-22T19:25:42.420Z,17.57
2019-05-22T19:28:11.730Z,14.20
2019-05-22T19:30:41.219Z,15.35
2019-05-22T19:33:14.661Z,14.33
2019-05-22T19:35:42.484Z,15.90
2019-05-22T19:38:12.947Z,14.85
2019-05-22T19:40:42.255Z,15.80
2019-05-22T19:43:11.880Z,18.32
2019-05-22T19:45:41.256Z,16.67
2019-05-22T19:48:11.416Z,14.95
2019-05-22T19:50:41.030Z,16.62
2019-05-22T19:53:18.869Z,15.08
2019-05-22T19:55:43.888Z,16.95
2019-05-22T19:58:13.421Z,17.70
2019-05-22T20:00:43.007Z,18.37
2019-05-22T20:03:14.237Z,18.27
2019-05-22T20:05:44.624Z,18.62
2019-05-22T20:08:14.108Z,15.98
2019-05-22T20:10:43.351Z,18.70
2019-05-22T20:13:12.742Z,18.17
2019-05-22T20:15:42.292Z,19.07
2019-05-22T20:18:11.623Z,18.73
2019-05-22T20:20:41.108Z,20.55
2019-05-22T20:23:10.368Z,19.32
2019-05-22T20:25:52.437Z,20.50
2019-05-22T20:28:21.995Z,19.25
2019-05-22T20:30:51.207Z,20.50
2019-05-22T20:33:20.697Z,21.42
2019-05-22T20:35:50.286Z,20.48
2019-05-22T20:38:19.590Z,20.20
2019-05-22T20:40:49.306Z,22.58
2019-05-22T20:43:18.650Z,21.45
2019-05-22T20:45:47.884Z,22.85
2019-05-22T20:48:24.577Z,23.45
2019-05-22T20:50:55.857Z,23.32
2019-05-22T20:53:25.049Z,24.18
2019-05-22T20:55:54.512Z,24.52
2019-05-22T20:58:23.914Z,24.10
2019-05-22T21:00:53.297Z,22.70
2019-05-22T21:03:23.666Z,23.10
2019-05-22T21:05:54.196Z,27.02
2019-05-22T21:08:24.451Z,28.25
2019-05-22T21:10:56.174Z,24.98
2019-05-22T21:13:26.237Z,25.43
2019-05-22T21:15:55.919Z,23.70
2019-05-22T21:18:29.490Z,24.92
2019-05-22T21:20:58.646Z,25.02
2019-05-22T21:23:29.589Z,24.23
2019-05-22T21:25:58.933Z,28.23
2019-05-22T21:28:28.197Z,27.00
2019-05-22T21:30:57.601Z,30.35
2019-05-22T21:33:26.788Z,28.90
2019-05-22T21:35:55.965Z,30.40
2019-05-22T21:38:26.216Z,28.70
2019-05-22T21:40:55.745Z,30.77
2019-05-22T21:43:25.197Z,26.05
2019-05-22T21:45:54.404Z,31.05
2019-05-22T21:48:23.631Z,33.75
2019-05-22T21:50:52.806Z,31.35
2019-05-22T21:53:22.045Z,29.45
2019-05-22T21:56:03.660Z,34.43
2019-05-22T21:58:22.522Z,35.13
2019-05-22T22:00:56.613Z,34.30
2019-05-22T22:03:38.734Z,35.70
2019-05-22T22:06:08.186Z,33.30
2019-05-22T22:08:37.409Z,35.10
2019-05-22T22:11:08.274Z,33.92
2019-05-22T22:13:38.119Z,32.85
2019-05-22T22:16:07.944Z,32.20
2019-05-22T22:18:38.851Z,32.35
2019-05-22T22:21:09.590Z,30.35
2019-05-22T22:23:40.159Z,31.20
2019-05-22T22:26:24.904Z,32.30
2019-05-22T22:28:41.787Z,31.60
2019-05-22T22:31:13.019Z,33.83
2019-05-22T22:33:42.355Z,39.35
2019-05-22T22:36:11.503Z,35.98
2019-05-22T22:38:42.391Z,42.48
2019-05-22T22:41:12.205Z,36.75
2019-05-22T22:43:43.155Z,35.70
2019-05-22T22:46:19.889Z,36.75
2019-05-22T22:48:50.758Z,37.08
2019-05-22T22:51:20.298Z,35.83
2019-05-22T22:53:50.204Z,36.95
2019-05-22T22:56:19.445Z,33.58
2019-05-22T22:58:48.604Z,34.20
2019-05-22T23:01:25.571Z,35.80
2019-05-22T23:03:55.086Z,37.90
2019-05-22T23:06:24.250Z,32.55
2019-05-22T23:08:53.489Z,33.40
2019-05-22T23:11:22.675Z,32.33
2019-05-22T23:13:52.725Z,30.12
2019-05-22T23:16:23.471Z,33.53
2019-05-22T23:19:15.822Z,32.17
2019-05-22T23:21:45.405Z,36.48
2019-05-22T23:24:16.703Z,30.97
2019-05-22T23:26:45.915Z,34.13
2019-05-22T23:29:15.646Z,34.18
2019-05-22T23:31:45.243Z,35.20
2019-05-22T23:34:14.884Z,34.58
2019-05-22T23:36:44.316Z,36.83
2019-05-22T23:39:15.119Z,35.20
2019-05-22T23:41:45.164Z,38.15
2019-05-22T23:44:14.530Z,38.33
2019-05-22T23:46:44.353Z,34.98
2019-05-22T23:49:13.842Z,35.95
2019-05-22T23:51:43.581Z,40.88
2019-05-22T23:54:13.213Z,39.42
2019-05-22T23:56:44.068Z,39.35
2019-05-22T23:59:13.947Z,43.42
